createdAt,value
2023-04-29T00:00:21.004Z,97631.84
2023-04-29T00:02:48.671Z,97634.81
2023-04-29T00:05:16.657Z,97645.09
2023-04-29T00:07:44.381Z,97642.56
2023-04-29T00:10:14.322Z,97628.63
2023-04-29T00:12:42.580Z,97636.16
2023-04-29T00:18:10.474Z,97649.50
2023-04-29T00:20:40.980Z,97635.19
2023-04-29T00:23:08.606Z,97635.13
2023-04-29T00:25:36.413Z,97627.38
2023-04-29T00:28:05.323Z,97631.59
2023-04-29T00:30:34.053Z,97627.59
2023-04-29T00:33:01.721Z,97647.56
2023-04-29T00:35:29.682Z,97649.00
2023-04-29T00:37:56.714Z,97651.81
2023-04-29T00:40:23.893Z,97641.88
2023-04-29T00:42:51.353Z,97640.69
2023-04-29T00:45:18.781Z,97638.47
2023-04-29T00:47:45.911Z,97628.38
2023-04-29T00:50:13.523Z,97620.69
2023-04-29T00:52:40.679Z,97620.66
2023-04-29T00:55:08.758Z,97611.50
2023-04-29T00:57:36.067Z,97605.00
2023-04-29T01:00:03.946Z,97614.88
2023-04-29T01:02:31.903Z,97621.81
2023-04-29T01:04:59.569Z,97611.44
2023-04-29T01:07:36.642Z,97607.22
2023-04-29T01:10:14.168Z,97592.19
2023-04-29T01:13:28.655Z,97592.59
2023-04-29T01:16:07.721Z,97598.66
2023-04-29T01:18:41.562Z,97598.97
2023-04-29T01:21:09.672Z,97613.75
2023-04-29T01:23:36.754Z,97591.63
2023-04-29T01:26:05.642Z,97593.22
2023-04-29T01:29:24.608Z,97589.69
2023-04-29T01:32:09.078Z,97576.44
2023-04-29T01:34:42.503Z,97585.22
2023-04-29T01:37:22.093Z,97581.63
2023-04-29T01:40:19.203Z,97574.44
2023-04-29T01:43:03.094Z,97572.56
2023-04-29T01:45:32.539Z,97571.19
2023-04-29T01:47:59.740Z,97569.38
2023-04-29T01:50:27.733Z,97567.03
2023-04-29T01:53:00.136Z,97566.34
2023-04-29T01:55:27.635Z,97564.66
2023-04-29T01:58:12.053Z,97557.72
2023-04-29T02:01:01.294Z,97560.28
2023-04-29T02:03:32.057Z,97556.09
2023-04-29T02:06:02.472Z,97548.09
2023-04-29T02:08:29.601Z,97559.25
2023-04-29T02:10:58.925Z,97562.34
2023-04-29T02:13:37.921Z,97546.28
2023-04-29T02:16:13.070Z,97537.81
2023-04-29T02:18:47.916Z,97536.97
2023-04-29T02:21:15.867Z,97531.91
2023-04-29T02:23:42.956Z,97537.66
2023-04-29T02:26:10.323Z,97521.34
2023-04-29T02:28:37.743Z,97526.28
2023-04-29T02:31:05.137Z,97531.91
2023-04-29T02:33:33.360Z,97524.56
2023-04-29T02:36:00.632Z,97514.69
2023-04-29T02:38:27.903Z,97528.13
2023-04-29T02:40:55.600Z,97527.94
2023-04-29T02:43:23.102Z,97525.97
2023-04-29T02:45:50.370Z,97524.84
2023-04-29T02:53:52.241Z,97512.03
2023-04-29T02:56:19.377Z,97499.72
2023-04-29T02:58:47.020Z,97517.78
2023-04-29T03:01:14.163Z,97509.19
2023-04-29T03:03:42.050Z,97518.75
2023-04-29T03:06:09.587Z,97514.94
2023-04-29T03:08:37.284Z,97510.38
2023-04-29T03:11:05.382Z,97521.03
2023-04-29T03:13:32.489Z,97519.34
2023-04-29T03:16:01.518Z,97516.69
2023-04-29T03:18:29.356Z,97512.03
2023-04-29T03:20:56.346Z,97514.53
2023-04-29T03:23:23.854Z,97509.94
2023-04-29T03:25:51.989Z,97497.22
2023-04-29T03:28:19.546Z,97501.47
2023-04-29T03:30:48.111Z,97497.91
2023-04-29T03:33:15.763Z,97502.81
2023-04-29T03:35:43.641Z,97492.66
2023-04-29T03:38:31.234Z,97494.47
2023-04-29T03:40:58.737Z,97501.97
2023-04-29T03:43:25.826Z,97493.44
2023-04-29T03:45:53.516Z,97491.97
2023-04-29T03:48:22.802Z,97493.75
2023-04-29T03:50:50.464Z,97489.75
2023-04-29T03:53:18.320Z,97490.53
2023-04-29T03:55:45.765Z,97476.06
2023-04-29T03:58:13.270Z,97479.59
2023-04-29T04:00:41.088Z,97481.59
2023-04-29T04:03:14.059Z,97481.69
2023-04-29T04:05:41.395Z,97473.66
2023-04-29T04:08:12.308Z,97477.38
2023-04-29T04:10:49.740Z,97473.09
2023-04-29T04:13:30.582Z,97472.22
2023-04-29T04:15:58.713Z,97466.59
2023-04-29T04:18:26.634Z,97473.38
2023-04-29T04:20:53.844Z,97471.59
2023-04-29T04:23:21.210Z,97476.78
2023-04-29T04:25:48.770Z,97465.41
2023-04-29T04:28:36.304Z,97464.28
2023-04-29T04:31:08.717Z,97453.13
2023-04-29T04:33:36.855Z,97452.97
2023-04-29T04:36:04.087Z,97445.13
2023-04-29T04:38:32.572Z,97440.75
2023-04-29T04:41:01.388Z,97435.13
2023-04-29T04:43:35.137Z,97440.72
2023-04-29T04:46:13.731Z,97444.13
2023-04-29T04:48:51.185Z,97436.31
2023-04-29T04:51:20.828Z,97439.00
2023-04-29T04:53:48.150Z,97430.44
2023-04-29T04:56:20.294Z,97429.91
2023-04-29T04:58:47.701Z,97429.81
2023-04-29T05:01:15.333Z,97419.50
2023-04-29T05:03:42.836Z,97417.50
2023-04-29T05:06:10.642Z,97416.94
2023-04-29T05:08:41.228Z,97446.44
2023-04-29T05:11:19.859Z,97449.53
2023-04-29T05:14:00.836Z,97451.31
2023-04-29T05:16:28.569Z,97463.09
2023-04-29T05:18:57.721Z,97453.78
2023-04-29T05:21:29.976Z,97459.84
2023-04-29T05:23:58.074Z,97474.91
2023-04-29T05:26:25.480Z,97482.09
2023-04-29T05:28:55.204Z,97479.22
2023-04-29T05:31:23.481Z,97496.25
2023-04-29T05:33:50.901Z,97493.16
2023-04-29T05:36:18.513Z,97490.19
2023-04-29T05:38:45.895Z,97494.34
2023-04-29T05:41:14.181Z,97482.41
2023-04-29T05:43:46.488Z,97490.13
2023-04-29T05:46:16.418Z,97501.88
2023-04-29T05:48:43.705Z,97508.66
2023-04-29T05:51:13.935Z,97520.44
2023-04-29T05:53:41.505Z,97528.81
2023-04-29T05:56:09.194Z,97521.97
2023-04-29T05:58:37.445Z,97508.16
2023-04-29T06:01:05.010Z,97515.72
2023-04-29T06:03:32.488Z,97511.84
2023-04-29T06:06:22.724Z,97518.94
2023-04-29T06:09:02.114Z,97516.22
2023-04-29T06:11:31.346Z,97522.69
2023-04-29T06:14:00.922Z,97517.59
2023-04-29T06:16:28.813Z,97517.28
2023-04-29T06:18:56.817Z,97523.06
2023-04-29T06:21:24.338Z,97518.59
2023-04-29T06:23:53.112Z,97517.53
2023-04-29T06:26:21.348Z,97506.69
2023-04-29T06:28:48.964Z,97472.44
2023-04-29T06:31:16.660Z,97468.44
2023-04-29T06:33:44.401Z,97469.72
2023-04-29T06:36:12.074Z,97483.47
2023-04-29T06:39:07.560Z,97466.22
2023-04-29T06:41:51.963Z,97466.34
2023-04-29T06:44:37.364Z,97462.16
2023-04-29T06:47:25.132Z,97447.59
2023-04-29T06:50:05.279Z,97441.81
2023-04-29T06:52:33.257Z,97448.13
2023-04-29T06:55:01.072Z,97450.75
2023-04-29T06:57:28.579Z,97446.91
2023-04-29T06:59:56.120Z,97447.84
2023-04-29T07:02:25.046Z,97445.94
2023-04-29T07:04:52.781Z,97454.50
2023-04-29T07:07:20.609Z,97457.53
2023-04-29T07:09:51.889Z,97464.50
2023-04-29T07:12:20.529Z,97459.50
2023-04-29T07:14:47.745Z,97461.44
2023-04-29T07:17:15.509Z,97467.72
2023-04-29T07:19:43.101Z,97461.75
2023-04-29T07:22:10.987Z,97460.13
2023-04-29T07:24:38.593Z,97469.97
2023-04-29T07:27:06.710Z,97480.31
2023-04-29T07:29:33.863Z,97481.41
2023-04-29T07:32:00.894Z,97480.41
2023-04-29T07:34:28.205Z,97481.38
2023-04-29T07:36:57.318Z,97481.88
2023-04-29T07:39:24.761Z,97481.22
2023-04-29T07:41:55.817Z,97468.78
2023-04-29T07:44:23.800Z,97476.69
2023-04-29T07:46:50.928Z,97477.66
2023-04-29T07:49:18.642Z,97482.84
2023-04-29T07:51:46.405Z,97472.84
2023-04-29T07:54:14.041Z,97467.03
2023-04-29T07:56:41.917Z,97478.81
2023-04-29T07:59:09.343Z,97482.88
2023-04-29T08:01:36.484Z,97484.97
2023-04-29T08:04:04.034Z,97481.88
2023-04-29T08:06:35.543Z,97498.94
2023-04-29T08:09:03.340Z,97493.72
2023-04-29T08:11:30.863Z,97476.19
2023-04-29T08:13:59.782Z,97464.38
2023-04-29T08:16:27.957Z,97487.91
2023-04-29T08:18:55.921Z,97491.34
2023-04-29T08:21:24.117Z,97481.06
2023-04-29T08:23:51.216Z,97480.41
2023-04-29T08:26:18.838Z,97489.78
2023-04-29T08:28:46.164Z,97481.38
2023-04-29T08:31:20.545Z,97470.88
2023-04-29T08:33:48.137Z,97474.31
2023-04-29T08:36:15.532Z,97463.47
2023-04-29T08:38:42.788Z,97469.34
2023-04-29T08:41:09.997Z,97463.88
2023-04-29T08:43:37.799Z,97468.56
2023-04-29T08:46:05.037Z,97467.41
2023-04-29T08:48:32.637Z,97473.19
2023-04-29T08:51:01.986Z,97481.72
2023-04-29T08:53:29.440Z,97487.53
2023-04-29T08:55:58.148Z,97480.41
2023-04-29T08:58:26.426Z,97476.84
2023-04-29T09:00:53.712Z,97479.25
2023-04-29T09:03:24.534Z,97480.81
2023-04-29T09:05:54.865Z,97480.31
2023-04-29T09:08:23.698Z,97469.00
2023-04-29T09:10:54.624Z,97459.91
2023-04-29T09:13:28.828Z,97458.91
2023-04-29T09:15:56.241Z,97465.34
2023-04-29T09:18:43.517Z,97460.00
2023-04-29T09:21:13.806Z,97464.81
2023-04-29T09:23:41.713Z,97458.66
2023-04-29T09:26:09.241Z,97467.53
2023-04-29T09:28:36.674Z,97447.97
2023-04-29T09:31:08.243Z,97462.19
2023-04-29T09:33:55.294Z,97457.53
2023-04-29T09:36:40.619Z,97457.59
2023-04-29T09:39:26.215Z,97456.53
2023-04-29T09:41:53.587Z,97458.06
2023-04-29T09:44:32.064Z,97450.84
2023-04-29T09:47:02.715Z,97447.66
2023-04-29T09:49:32.440Z,97444.47
2023-04-29T09:52:03.967Z,97452.06
2023-04-29T09:54:32.846Z,97448.94
2023-04-29T09:57:02.378Z,97458.28
2023-04-29T09:59:29.832Z,97457.63
2023-04-29T10:01:57.759Z,97450.97
2023-04-29T10:04:26.332Z,97461.03
2023-04-29T10:06:54.823Z,97447.47
2023-04-29T10:09:23.126Z,97448.56
2023-04-29T10:11:53.848Z,97447.47
2023-04-29T10:14:22.111Z,97442.44
2023-04-29T10:16:50.723Z,97438.06
2023-04-29T10:19:39.982Z,97450.53
2023-04-29T10:22:12.786Z,97449.91
2023-04-29T10:24:40.175Z,97448.94
2023-04-29T10:27:14.359Z,97455.25
2023-04-29T10:29:41.794Z,97453.00
2023-04-29T10:32:10.532Z,97460.91
2023-04-29T10:34:39.414Z,97459.16
2023-04-29T10:37:08.821Z,97458.97
2023-04-29T10:39:58.429Z,97456.81
2023-04-29T10:42:37.347Z,97447.16
2023-04-29T10:45:24.358Z,97449.88
2023-04-29T10:48:20.998Z,97446.69
2023-04-29T10:50:48.964Z,97437.38
2023-04-29T10:53:16.651Z,97441.63
2023-04-29T10:55:50.813Z,97444.53
2023-04-29T10:58:36.536Z,97439.53
2023-04-29T11:01:04.265Z,97432.59
2023-04-29T11:03:59.996Z,97440.19
2023-04-29T11:06:36.848Z,97435.22
2023-04-29T11:09:08.792Z,97432.47
2023-04-29T11:11:58.152Z,97429.25
2023-04-29T11:14:37.300Z,97440.41
2023-04-29T11:17:11.244Z,97433.97
2023-04-29T11:19:47.255Z,97444.63
2023-04-29T11:22:17.807Z,97438.34
2023-04-29T11:24:53.256Z,97439.63
2023-04-29T11:27:24.860Z,97439.75
2023-04-29T11:29:58.037Z,97451.41
2023-04-29T11:32:26.959Z,97439.94
2023-04-29T11:34:55.204Z,97449.78
2023-04-29T11:37:26.870Z,97446.88
2023-04-29T11:39:59.893Z,97433.78
2023-04-29T11:42:27.510Z,97429.75
2023-04-29T11:44:56.957Z,97441.41
2023-04-29T11:47:28.956Z,97429.63
2023-04-29T11:50:07.853Z,97444.00
2023-04-29T11:52:37.035Z,97437.84
2023-04-29T11:55:05.228Z,97441.53
2023-04-29T11:57:32.390Z,97444.47
2023-04-29T11:59:59.700Z,97442.00
2023-04-29T12:02:33.987Z,97436.69
2023-04-29T12:05:05.735Z,97433.63
2023-04-29T12:07:33.301Z,97432.00
2023-04-29T12:10:00.698Z,97444.41
2023-04-29T12:12:28.207Z,97430.84
2023-04-29T12:14:55.678Z,97437.75
2023-04-29T12:17:23.100Z,97441.41
2023-04-29T12:19:51.584Z,97440.03
2023-04-29T12:22:19.510Z,97445.00
2023-04-29T12:24:46.789Z,97442.53
2023-04-29T12:27:14.145Z,97441.66
2023-04-29T12:29:41.641Z,97444.69
2023-04-29T12:32:13.379Z,97437.06
2023-04-29T12:34:40.807Z,97437.31
2023-04-29T12:37:09.526Z,97455.31
2023-04-29T12:39:36.919Z,97442.34
2023-04-29T12:42:04.353Z,97443.09
2023-04-29T12:44:37.783Z,97453.84
2023-04-29T12:47:10.054Z,97453.16
2023-04-29T12:49:38.227Z,97454.09
2023-04-29T12:52:09.032Z,97455.13
2023-04-29T12:54:37.151Z,97446.84
2023-04-29T12:57:04.305Z,97451.13
2023-04-29T12:59:31.526Z,97445.28
2023-04-29T13:01:58.807Z,97459.97
2023-04-29T13:04:26.259Z,97465.38
2023-04-29T13:07:00.258Z,97466.69
2023-04-29T13:09:27.634Z,97471.22
2023-04-29T13:11:54.657Z,97471.34
2023-04-29T13:14:22.035Z,97469.22
2023-04-29T13:16:49.244Z,97476.91
2023-04-29T13:19:30.541Z,97483.28
2023-04-29T13:22:04.017Z,97488.66
2023-04-29T13:24:32.723Z,97483.78
2023-04-29T13:27:00.302Z,97487.41
2023-04-29T13:29:27.368Z,97492.38
2023-04-29T13:31:54.556Z,97485.69
2023-04-29T13:34:21.736Z,97505.50
2023-04-29T13:36:49.019Z,97504.41
2023-04-29T13:39:17.198Z,97509.56
2023-04-29T13:41:46.125Z,97512.31
2023-04-29T13:46:47.513Z,97506.75
2023-04-29T13:49:29.126Z,97499.16
2023-04-29T13:59:44.713Z,97518.03
2023-04-29T14:02:25.920Z,97532.97
2023-04-29T14:04:54.485Z,97526.84
2023-04-29T14:07:22.918Z,97521.78
2023-04-29T14:09:49.848Z,97519.75
2023-04-29T14:12:16.879Z,97523.09
2023-04-29T14:14:44.324Z,97523.44
2023-04-29T14:17:11.901Z,97516.16
2023-04-29T14:19:38.973Z,97531.41
2023-04-29T14:22:06.169Z,97514.09
2023-04-29T14:24:33.404Z,97522.84
2023-04-29T14:27:02.005Z,97528.91
2023-04-29T14:29:29.505Z,97522.63
2023-04-29T14:31:57.289Z,97531.34
2023-04-29T14:34:24.299Z,97525.69
2023-04-29T14:36:51.932Z,97526.75
2023-04-29T14:39:18.866Z,97534.13
2023-04-29T14:41:46.514Z,97537.41
2023-04-29T14:44:13.902Z,97535.22
2023-04-29T14:46:41.857Z,97527.38
2023-04-29T14:49:09.199Z,97529.53
2023-04-29T14:51:36.483Z,97523.84
2023-04-29T14:54:03.913Z,97526.25
2023-04-29T14:56:31.293Z,97522.47
2023-04-29T14:58:58.361Z,97523.78
2023-04-29T15:01:28.314Z,97540.28
2023-04-29T15:03:57.114Z,97534.28
2023-04-29T15:06:24.865Z,97538.63
2023-04-29T15:08:52.098Z,97542.69
2023-04-29T15:11:19.751Z,97522.38
2023-04-29T15:13:46.727Z,97541.59
2023-04-29T15:16:13.865Z,97532.91
2023-04-29T15:18:43.357Z,97537.78
2023-04-29T15:21:12.970Z,97524.78
2023-04-29T15:23:40.551Z,97528.28
2023-04-29T15:26:08.429Z,97530.97
2023-04-29T15:28:35.877Z,97533.09
2023-04-29T15:31:04.465Z,97533.88
2023-04-29T15:33:32.834Z,97525.72
2023-04-29T15:36:00.517Z,97530.59
2023-04-29T15:38:29.169Z,97526.22
2023-04-29T15:41:00.561Z,97528.09
2023-04-29T15:43:28.399Z,97536.97
2023-04-29T15:45:55.826Z,97516.91
2023-04-29T15:48:24.583Z,97529.28
2023-04-29T15:50:52.332Z,97528.47
2023-04-29T15:53:19.723Z,97530.34
2023-04-29T15:55:46.588Z,97535.94
2023-04-29T15:58:14.015Z,97525.63
2023-04-29T16:00:41.757Z,97530.97
2023-04-29T16:03:08.911Z,97540.69
2023-04-29T16:05:36.721Z,97538.47
2023-04-29T16:08:04.772Z,97541.09
2023-04-29T16:10:32.457Z,97534.31
2023-04-29T16:13:00.832Z,97544.59
2023-04-29T16:15:28.980Z,97542.09
2023-04-29T16:17:56.006Z,97542.03
2023-04-29T16:20:23.373Z,97546.03
2023-04-29T16:22:50.538Z,97540.34
2023-04-29T16:25:18.152Z,97548.94
2023-04-29T16:27:45.639Z,97558.09
2023-04-29T16:30:13.024Z,97542.66
2023-04-29T16:32:42.603Z,97557.16
2023-04-29T16:35:13.009Z,97553.91
2023-04-29T16:37:40.215Z,97552.25
2023-04-29T16:40:08.102Z,97544.38
2023-04-29T16:42:35.604Z,97540.31
2023-04-29T16:45:03.126Z,97539.16
2023-04-29T16:47:31.350Z,97537.47
2023-04-29T16:49:58.627Z,97533.66
2023-04-29T16:52:25.945Z,97541.69
2023-04-29T16:54:53.293Z,97538.69
2023-04-29T16:57:21.595Z,97537.56
2023-04-29T16:59:48.903Z,97544.84
2023-04-29T17:02:16.147Z,97535.03
2023-04-29T17:04:43.738Z,97536.94
2023-04-29T17:07:10.926Z,97529.41
2023-04-29T17:09:37.891Z,97524.50
2023-04-29T17:12:06.762Z,97527.19
2023-04-29T17:14:33.918Z,97533.91
2023-04-29T17:17:01.368Z,97532.28
2023-04-29T17:19:29.028Z,97534.13
2023-04-29T17:21:56.576Z,97536.53
2023-04-29T17:24:25.169Z,97539.13
2023-04-29T17:26:52.524Z,97544.22
2023-04-29T17:29:19.484Z,97536.88
2023-04-29T17:31:53.949Z,97543.59
2023-04-29T17:34:25.132Z,97540.09
2023-04-29T17:36:53.057Z,97542.69
2023-04-29T17:39:20.303Z,97549.09
2023-04-29T17:41:47.350Z,97547.22
2023-04-29T17:44:14.814Z,97554.50
2023-04-29T17:46:42.548Z,97552.06
2023-04-29T17:49:09.935Z,97549.06
2023-04-29T17:51:37.587Z,97543.31
2023-04-29T17:54:05.606Z,97555.72
2023-04-29T17:56:34.584Z,97556.81
2023-04-29T17:59:02.589Z,97553.75
2023-04-29T18:01:29.678Z,97553.75
2023-04-29T18:03:57.517Z,97558.69
2023-04-29T18:06:24.742Z,97546.47
2023-04-29T18:08:52.338Z,97556.72
2023-04-29T18:11:19.847Z,97554.00
2023-04-29T18:13:46.817Z,97564.50
2023-04-29T18:16:14.094Z,97565.47
2023-04-29T18:18:41.447Z,97564.06
2023-04-29T18:21:08.462Z,97561.56
2023-04-29T18:23:35.760Z,97563.13
2023-04-29T18:26:03.420Z,97558.94
2023-04-29T18:28:31.032Z,97566.72
2023-04-29T18:30:57.916Z,97560.75
2023-04-29T18:33:26.292Z,97559.38
2023-04-29T18:35:54.428Z,97561.72
2023-04-29T18:38:21.657Z,97568.44
2023-04-29T18:40:49.097Z,97567.28
2023-04-29T18:43:18.266Z,97567.53
2023-04-29T18:45:45.564Z,97575.88
2023-04-29T18:48:13.463Z,97573.88
2023-04-29T18:50:41.001Z,97577.09
2023-04-29T18:53:08.289Z,97571.44
2023-04-29T18:55:35.880Z,97561.09
2023-04-29T18:58:03.198Z,97570.81
2023-04-29T19:00:30.630Z,97565.72
2023-04-29T19:02:58.001Z,97566.47
2023-04-29T19:05:25.124Z,97564.59
2023-04-29T19:07:52.708Z,97572.44
2023-04-29T19:10:20.071Z,97568.19
2023-04-29T19:12:47.481Z,97588.44
2023-04-29T19:15:15.084Z,97585.75
2023-04-29T19:17:42.682Z,97574.56
2023-04-29T19:20:10.544Z,97571.38
2023-04-29T19:22:38.147Z,97567.13
2023-04-29T19:25:05.878Z,97555.94
2023-04-29T19:27:32.934Z,97552.19
2023-04-29T19:30:00.236Z,97551.84
2023-04-29T19:32:30.056Z,97555.28
2023-04-29T19:34:57.475Z,97549.00
2023-04-29T19:37:24.763Z,97557.56
2023-04-29T19:39:52.553Z,97561.59
2023-04-29T19:42:19.903Z,97576.69
2023-04-29T19:44:47.028Z,97580.09
2023-04-29T19:47:14.284Z,97572.81
2023-04-29T19:49:42.161Z,97587.72
2023-04-29T19:52:09.070Z,97583.72
2023-04-29T19:54:36.802Z,97583.47
2023-04-29T19:57:04.136Z,97584.28
2023-04-29T19:59:31.501Z,97586.25
2023-04-29T20:01:58.907Z,97583.28
2023-04-29T20:04:26.612Z,97594.44
2023-04-29T20:06:53.922Z,97596.06
2023-04-29T20:09:21.507Z,97596.31
2023-04-29T20:11:48.523Z,97591.94
2023-04-29T20:14:15.994Z,97595.63
2023-04-29T20:16:42.985Z,97599.56
2023-04-29T20:19:10.597Z,97598.97
2023-04-29T20:21:39.865Z,97586.47
2023-04-29T20:24:07.972Z,97600.38
2023-04-29T20:26:35.408Z,97609.06
2023-04-29T20:29:03.025Z,97608.06
2023-04-29T20:31:30.170Z,97607.72
2023-04-29T20:33:57.280Z,97604.94
2023-04-29T20:36:24.729Z,97590.91
2023-04-29T20:38:52.381Z,97594.88
2023-04-29T20:41:19.556Z,97598.31
2023-04-29T20:43:46.720Z,97614.13
2023-04-29T20:46:15.667Z,97616.50
2023-04-29T20:48:43.312Z,97611.56
2023-04-29T20:51:12.090Z,97619.06
2023-04-29T20:53:39.424Z,97611.47
2023-04-29T20:56:08.756Z,97614.16
2023-04-29T20:58:35.901Z,97613.59
2023-04-29T21:01:03.128Z,97595.22
2023-04-29T21:03:30.492Z,97596.75
2023-04-29T21:05:57.826Z,97602.03
2023-04-29T21:08:25.318Z,97605.19
2023-04-29T21:10:52.434Z,97602.41
2023-04-29T21:13:19.780Z,97603.47
2023-04-29T21:15:46.816Z,97605.22
2023-04-29T21:18:14.347Z,97623.97
2023-04-29T21:20:41.545Z,97621.16
2023-04-29T21:23:08.850Z,97623.47
2023-04-29T21:25:36.194Z,97626.31
2023-04-29T21:28:04.269Z,97629.25
2023-04-29T21:30:31.501Z,97628.16
2023-04-29T21:32:59.007Z,97624.06
2023-04-29T21:35:26.644Z,97642.78
2023-04-29T21:37:54.380Z,97649.56
2023-04-29T21:40:22.367Z,97640.56
2023-04-29T21:42:50.958Z,97661.72
2023-04-29T21:45:18.243Z,97656.78
2023-04-29T21:47:45.883Z,97658.31
2023-04-29T21:50:13.069Z,97658.91
2023-04-29T21:52:40.111Z,97665.19
2023-04-29T21:55:07.750Z,97660.72
2023-04-29T21:57:43.995Z,97648.66
2023-04-29T22:00:28.622Z,97646.09
2023-04-29T22:02:56.245Z,97658.72
2023-04-29T22:05:24.514Z,97656.91
2023-04-29T22:07:51.814Z,97652.81
2023-04-29T22:10:19.129Z,97641.84
2023-04-29T22:12:46.318Z,97641.25
2023-04-29T22:15:26.898Z,97635.53
2023-04-29T22:17:56.499Z,97621.84
2023-04-29T22:20:23.623Z,97634.09
2023-04-29T22:22:51.717Z,97629.41
2023-04-29T22:25:22.132Z,97626.38
2023-04-29T22:27:49.772Z,97625.69
2023-04-29T22:30:20.445Z,97627.09
2023-04-29T22:32:47.679Z,97646.00
2023-04-29T22:35:15.734Z,97639.59
2023-04-29T22:37:43.224Z,97632.72
2023-04-29T22:40:11.568Z,97636.25
2023-04-29T22:42:39.369Z,97632.34
2023-04-29T22:45:06.956Z,97650.91
2023-04-29T22:47:34.319Z,97656.09
2023-04-29T22:50:01.616Z,97665.91
2023-04-29T22:52:28.956Z,97651.19
2023-04-29T22:54:56.149Z,97667.00
2023-04-29T22:57:23.493Z,97672.25
2023-04-29T22:59:56.300Z,97673.31
2023-04-29T23:02:32.978Z,97676.00
2023-04-29T23:05:00.717Z,97678.09
2023-04-29T23:07:30.532Z,97676.13
2023-04-29T23:09:58.089Z,97684.09
2023-04-29T23:12:25.459Z,97693.09
2023-04-29T23:14:52.535Z,97673.34
2023-04-29T23:17:19.878Z,97666.69
2023-04-29T23:19:47.149Z,97670.56
2023-04-29T23:22:14.811Z,97681.88
2023-04-29T23:24:42.147Z,97681.31
2023-04-29T23:27:09.412Z,97675.34
2023-04-29T23:29:36.420Z,97671.25
2023-04-29T23:32:03.596Z,97676.38
2023-04-29T23:34:30.924Z,97669.97
2023-04-29T23:36:57.829Z,97676.91
2023-04-29T23:39:25.824Z,97681.81
2023-04-29T23:41:53.101Z,97686.22
2023-04-29T23:44:20.824Z,97690.06
2023-04-29T23:46:48.254Z,97679.63
2023-04-29T23:49:15.393Z,97669.13
2023-04-29T23:51:42.827Z,97675.31
2023-04-29T23:54:10.110Z,97669.84
2023-04-29T23:56:37.457Z,97662.97
2023-04-29T23:59:04.902Z,97654.19
